sensor_id;sensor_type;location;lat;lon;timestamp;temperature;humidity
33827;DHT22;20128;45.582;5.298;2023-03-01T00:01:29;5.20;62.10
33827;DHT22;20128;45.582;5.298;2023-03-01T00:03:56;5.10;62.30
33827;DHT22;20128;45.582;5.298;2023-03-01T00:06:23;5.00;62.30
33827;DHT22;20128;45.582;5.298;2023-03-01T00:08:49;4.90;62.50
33827;DHT22;20128;45.582;5.298;2023-03-01T00:11:17;4.80;62.90
33827;DHT22;20128;45.582;5.298;2023-03-01T00:13:45;4.80;62.70
33827;DHT22;20128;45.582;5.298;2023-03-01T00:16:16;4.80;63.00
33827;DHT22;20128;45.582;5.298;2023-03-01T00:18:43;4.80;63.00
33827;DHT22;20128;45.582;5.298;2023-03-01T00:21:08;4.80;63.10
33827;DHT22;20128;45.582;5.298;2023-03-01T00:23:35;4.90;63.20
33827;DHT22;20128;45.582;5.298;2023-03-01T00:26:01;4.80;63.00
33827;DHT22;20128;45.582;5.298;2023-03-01T00:28:26;4.80;63.20
33827;DHT22;20128;45.582;5.298;2023-03-01T00:30:52;4.80;63.80
33827;DHT22;20128;45.582;5.298;2023-03-01T00:33:18;4.80;63.30
33827;DHT22;20128;45.582;5.298;2023-03-01T00:35:44;4.80;63.50
33827;DHT22;20128;45.582;5.298;2023-03-01T00:38:10;4.90;63.40
33827;DHT22;20128;45.582;5.298;2023-03-01T00:40:36;5.00;63.30
33827;DHT22;20128;45.582;5.298;2023-03-01T00:43:02;5.00;63.00
33827;DHT22;20128;45.582;5.298;2023-03-01T00:45:28;5.00;62.80
33827;DHT22;20128;45.582;5.298;2023-03-01T00:47:56;5.00;63.00
33827;DHT22;20128;45.582;5.298;2023-03-01T00:50:22;5.00;63.00
33827;DHT22;20128;45.582;5.298;2023-03-01T00:52:52;5.00;62.80
33827;DHT22;20128;45.582;5.298;2023-03-01T00:55:18;4.90;62.80
33827;DHT22;20128;45.582;5.298;2023-03-01T00:57:44;4.90;63.10
33827;DHT22;20128;45.582;5.298;2023-03-01T01:00:11;5.00;63.40
33827;DHT22;20128;45.582;5.298;2023-03-01T01:02:37;4.90;63.00
33827;DHT22;20128;45.582;5.298;2023-03-01T01:05:04;4.90;63.00
33827;DHT22;20128;45.582;5.298;2023-03-01T01:07:29;4.90;62.80
33827;DHT22;20128;45.582;5.298;2023-03-01T01:09:55;4.80;63.10
33827;DHT22;20128;45.582;5.298;2023-03-01T01:12:21;4.70;63.30
33827;DHT22;20128;45.582;5.298;2023-03-01T01:14:47;4.70;63.30
33827;DHT22;20128;45.582;5.298;2023-03-01T01:17:12;4.70;63.20
33827;DHT22;20128;45.582;5.298;2023-03-01T01:19:38;4.60;63.10
33827;DHT22;20128;45.582;5.298;2023-03-01T01:22:04;4.60;63.30
33827;DHT22;20128;45.582;5.298;2023-03-01T01:24:30;4.60;63.30
33827;DHT22;20128;45.582;5.298;2023-03-01T01:26:55;4.60;63.30
33827;DHT22;20128;45.582;5.298;2023-03-01T01:29:21;4.60;63.30
33827;DHT22;20128;45.582;5.298;2023-03-01T01:31:47;4.50;63.20
33827;DHT22;20128;45.582;5.298;2023-03-01T01:34:18;4.50;63.30
33827;DHT22;20128;45.582;5.298;2023-03-01T01:36:44;4.50;63.30
33827;DHT22;20128;45.582;5.298;2023-03-01T01:39:12;4.50;63.40
33827;DHT22;20128;45.582;5.298;2023-03-01T01:41:40;4.50;63.40
33827;DHT22;20128;45.582;5.298;2023-03-01T01:44:20;4.50;63.30
33827;DHT22;20128;45.582;5.298;2023-03-01T01:46:52;4.50;63.20
33827;DHT22;20128;45.582;5.298;2023-03-01T01:49:24;4.40;63.30
33827;DHT22;20128;45.582;5.298;2023-03-01T01:51:55;4.40;63.30
33827;DHT22;20128;45.582;5.298;2023-03-01T01:54:35;4.40;63.30
33827;DHT22;20128;45.582;5.298;2023-03-01T01:57:10;4.40;63.20
33827;DHT22;20128;45.582;5.298;2023-03-01T01:59:36;4.50;63.30
33827;DHT22;20128;45.582;5.298;2023-03-01T02:02:04;4.50;63.30
33827;DHT22;20128;45.582;5.298;2023-03-01T02:04:31;4.50;63.10
33827;DHT22;20128;45.582;5.298;2023-03-01T02:07:01;4.50;63.10
33827;DHT22;20128;45.582;5.298;2023-03-01T02:09:28;4.50;63.00
33827;DHT22;20128;45.582;5.298;2023-03-01T02:11:55;4.30;63.10
33827;DHT22;20128;45.582;5.298;2023-03-01T02:14:20;4.40;63.40
33827;DHT22;20128;45.582;5.298;2023-03-01T02:16:46;4.40;63.20
33827;DHT22;20128;45.582;5.298;2023-03-01T02:19:26;4.40;63.20
33827;DHT22;20128;45.582;5.298;2023-03-01T02:22:07;4.40;63.20
33827;DHT22;20128;45.582;5.298;2023-03-01T02:27:19;4.40;63.00
33827;DHT22;20128;45.582;5.298;2023-03-01T02:29:50;4.40;63.00
33827;DHT22;20128;45.582;5.298;2023-03-01T02:32:16;4.30;63.20
33827;DHT22;20128;45.582;5.298;2023-03-01T02:34:52;4.40;63.10
33827;DHT22;20128;45.582;5.298;2023-03-01T02:37:19;4.30;63.30
33827;DHT22;20128;45.582;5.298;2023-03-01T02:39:54;4.20;63.10
33827;DHT22;20128;45.582;5.298;2023-03-01T02:42:26;4.20;63.30
33827;DHT22;20128;45.582;5.298;2023-03-01T02:44:55;4.20;63.40
33827;DHT22;20128;45.582;5.298;2023-03-01T02:47:21;4.20;63.70
33827;DHT22;20128;45.582;5.298;2023-03-01T02:49:47;4.10;63.80
33827;DHT22;20128;45.582;5.298;2023-03-01T02:52:37;4.20;63.90
33827;DHT22;20128;45.582;5.298;2023-03-01T02:55:04;4.20;63.70
33827;DHT22;20128;45.582;5.298;2023-03-01T02:57:33;4.20;63.80
33827;DHT22;20128;45.582;5.298;2023-03-01T03:00:03;4.20;63.50
33827;DHT22;20128;45.582;5.298;2023-03-01T03:02:33;4.20;63.40
33827;DHT22;20128;45.582;5.298;2023-03-01T03:07:42;4.30;63.60
33827;DHT22;20128;45.582;5.298;2023-03-01T03:10:14;4.30;63.50
33827;DHT22;20128;45.582;5.298;2023-03-01T03:12:40;4.40;63.40
33827;DHT22;20128;45.582;5.298;2023-03-01T03:15:07;4.40;63.40
33827;DHT22;20128;45.582;5.298;2023-03-01T03:17:38;4.40;63.30
33827;DHT22;20128;45.582;5.298;2023-03-01T03:20:06;4.40;63.40
33827;DHT22;20128;45.582;5.298;2023-03-01T03:22:37;4.40;63.50
33827;DHT22;20128;45.582;5.298;2023-03-01T03:25:03;4.40;63.20
33827;DHT22;20128;45.582;5.298;2023-03-01T03:27:29;4.30;63.00
33827;DHT22;20128;45.582;5.298;2023-03-01T03:29:57;4.30;63.30
33827;DHT22;20128;45.582;5.298;2023-03-01T03:32:22;4.20;63.10
33827;DHT22;20128;45.582;5.298;2023-03-01T03:34:48;4.20;63.40
33827;DHT22;20128;45.582;5.298;2023-03-01T03:37:14;4.20;63.50
33827;DHT22;20128;45.582;5.298;2023-03-01T03:40:00;4.20;63.60
33827;DHT22;20128;45.582;5.298;2023-03-01T03:42:25;4.20;63.50
33827;DHT22;20128;45.582;5.298;2023-03-01T03:44:51;4.10;63.60
33827;DHT22;20128;45.582;5.298;2023-03-01T03:47:17;4.20;63.70
33827;DHT22;20128;45.582;5.298;2023-03-01T03:49:42;4.20;63.80
33827;DHT22;20128;45.582;5.298;2023-03-01T03:52:08;4.30;63.70
33827;DHT22;20128;45.582;5.298;2023-03-01T03:54:39;4.20;63.50
33827;DHT22;20128;45.582;5.298;2023-03-01T03:57:06;4.20;63.30
33827;DHT22;20128;45.582;5.298;2023-03-01T03:59:32;4.20;63.30
33827;DHT22;20128;45.582;5.298;2023-03-01T04:01:57;4.20;63.50
33827;DHT22;20128;45.582;5.298;2023-03-01T04:04:23;4.10;63.60
33827;DHT22;20128;45.582;5.298;2023-03-01T04:06:49;4.10;63.50
33827;DHT22;20128;45.582;5.298;2023-03-01T04:09:14;4.00;63.70
33827;DHT22;20128;45.582;5.298;2023-03-01T04:11:40;4.00;63.80
33827;DHT22;20128;45.582;5.298;2023-03-01T04:14:05;4.10;63.90
33827;DHT22;20128;45.582;5.298;2023-03-01T04:16:31;4.00;63.90
33827;DHT22;20128;45.582;5.298;2023-03-01T04:18:57;3.90;63.60
33827;DHT22;20128;45.582;5.298;2023-03-01T04:21:25;4.00;63.80
33827;DHT22;20128;45.582;5.298;2023-03-01T04:23:51;4.00;63.90
33827;DHT22;20128;45.582;5.298;2023-03-01T04:26:18;4.00;63.90
33827;DHT22;20128;45.582;5.298;2023-03-01T04:28:45;4.00;64.00
33827;DHT22;20128;45.582;5.298;2023-03-01T04:31:17;4.00;63.80
33827;DHT22;20128;45.582;5.298;2023-03-01T04:36:12;4.00;63.70
33827;DHT22;20128;45.582;5.298;2023-03-01T04:38:39;4.00;63.90
33827;DHT22;20128;45.582;5.298;2023-03-01T04:41:07;4.00;63.90
33827;DHT22;20128;45.582;5.298;2023-03-01T04:43:33;3.90;63.80
33827;DHT22;20128;45.582;5.298;2023-03-01T04:46:12;4.00;63.80
33827;DHT22;20128;45.582;5.298;2023-03-01T04:48:40;3.90;64.00
33827;DHT22;20128;45.582;5.298;2023-03-01T04:51:07;3.90;64.00
33827;DHT22;20128;45.582;5.298;2023-03-01T04:53:34;3.80;64.10
33827;DHT22;20128;45.582;5.298;2023-03-01T04:56:05;3.80;64.10
33827;DHT22;20128;45.582;5.298;2023-03-01T04:58:31;3.70;64.30
33827;DHT22;20128;45.582;5.298;2023-03-01T05:00:57;3.70;64.30
33827;DHT22;20128;45.582;5.298;2023-03-01T05:03:23;3.70;64.40
33827;DHT22;20128;45.582;5.298;2023-03-01T05:05:50;3.70;64.30
33827;DHT22;20128;45.582;5.298;2023-03-01T05:08:16;3.80;64.30
33827;DHT22;20128;45.582;5.298;2023-03-01T05:10:49;3.80;64.50
33827;DHT22;20128;45.582;5.298;2023-03-01T05:13:15;3.80;64.50
33827;DHT22;20128;45.582;5.298;2023-03-01T05:15:54;3.80;64.30
33827;DHT22;20128;45.582;5.298;2023-03-01T05:18:20;3.90;64.30
33827;DHT22;20128;45.582;5.298;2023-03-01T05:20:46;3.90;64.10
33827;DHT22;20128;45.582;5.298;2023-03-01T05:23:13;4.00;64.20
33827;DHT22;20128;45.582;5.298;2023-03-01T05:25:38;4.00;64.10
33827;DHT22;20128;45.582;5.298;2023-03-01T05:28:07;4.00;63.80
33827;DHT22;20128;45.582;5.298;2023-03-01T05:30:35;3.90;63.70
33827;DHT22;20128;45.582;5.298;2023-03-01T05:33:01;3.90;64.00
33827;DHT22;20128;45.582;5.298;2023-03-01T05:35:27;3.90;64.10
33827;DHT22;20128;45.582;5.298;2023-03-01T05:37:52;3.80;64.00
33827;DHT22;20128;45.582;5.298;2023-03-01T05:40:21;3.90;63.90
33827;DHT22;20128;45.582;5.298;2023-03-01T05:42:49;3.70;64.00
33827;DHT22;20128;45.582;5.298;2023-03-01T05:45:16;3.60;64.10
33827;DHT22;20128;45.582;5.298;2023-03-01T05:47:43;3.50;64.40
33827;DHT22;20128;45.582;5.298;2023-03-01T05:50:16;3.50;64.60
33827;DHT22;20128;45.582;5.298;2023-03-01T05:52:50;3.40;65.00
33827;DHT22;20128;45.582;5.298;2023-03-01T05:55:17;3.40;64.70
33827;DHT22;20128;45.582;5.298;2023-03-01T05:57:43;3.40;64.80
33827;DHT22;20128;45.582;5.298;2023-03-01T06:00:09;3.40;65.00
33827;DHT22;20128;45.582;5.298;2023-03-01T06:02:35;3.30;64.90
33827;DHT22;20128;45.582;5.298;2023-03-01T06:05:01;3.40;64.90
33827;DHT22;20128;45.582;5.298;2023-03-01T06:07:27;3.40;65.00
33827;DHT22;20128;45.582;5.298;2023-03-01T06:09:53;3.40;65.00
33827;DHT22;20128;45.582;5.298;2023-03-01T06:12:19;3.50;65.00
33827;DHT22;20128;45.582;5.298;2023-03-01T06:14:45;3.50;64.90
33827;DHT22;20128;45.582;5.298;2023-03-01T06:17:11;3.50;64.80
33827;DHT22;20128;45.582;5.298;2023-03-01T06:19:37;3.40;64.90
33827;DHT22;20128;45.582;5.298;2023-03-01T06:22:03;3.40;64.80
33827;DHT22;20128;45.582;5.298;2023-03-01T06:24:28;3.30;65.00
33827;DHT22;20128;45.582;5.298;2023-03-01T06:26:54;3.30;65.20
33827;DHT22;20128;45.582;5.298;2023-03-01T06:29:21;3.30;65.20
33827;DHT22;20128;45.582;5.298;2023-03-01T06:31:48;3.20;65.30
33827;DHT22;20128;45.582;5.298;2023-03-01T06:34:14;3.20;65.40
33827;DHT22;20128;45.582;5.298;2023-03-01T06:36:40;3.30;65.40
33827;DHT22;20128;45.582;5.298;2023-03-01T06:39:06;3.30;65.40
33827;DHT22;20128;45.582;5.298;2023-03-01T06:41:32;3.30;65.40
33827;DHT22;20128;45.582;5.298;2023-03-01T06:43:59;3.30;65.60
33827;DHT22;20128;45.582;5.298;2023-03-01T06:46:24;3.20;65.70
33827;DHT22;20128;45.582;5.298;2023-03-01T06:48:50;3.20;65.60
33827;DHT22;20128;45.582;5.298;2023-03-01T06:51:16;3.20;65.40
33827;DHT22;20128;45.582;5.298;2023-03-01T06:53:41;3.10;65.70
33827;DHT22;20128;45.582;5.298;2023-03-01T06:56:07;3.10;65.80
33827;DHT22;20128;45.582;5.298;2023-03-01T06:58:33;3.10;65.80
33827;DHT22;20128;45.582;5.298;2023-03-01T07:00:59;3.20;65.90
33827;DHT22;20128;45.582;5.298;2023-03-01T07:03:24;3.20;65.90
33827;DHT22;20128;45.582;5.298;2023-03-01T07:05:50;3.20;65.90
33827;DHT22;20128;45.582;5.298;2023-03-01T07:08:19;3.30;65.90
33827;DHT22;20128;45.582;5.298;2023-03-01T07:10:45;3.20;65.60
33827;DHT22;20128;45.582;5.298;2023-03-01T07:13:10;3.20;65.90
33827;DHT22;20128;45.582;5.298;2023-03-01T07:15:36;3.20;66.00
33827;DHT22;20128;45.582;5.298;2023-03-01T07:18:02;3.20;65.60
33827;DHT22;20128;45.582;5.298;2023-03-01T07:20:28;3.10;65.70
33827;DHT22;20128;45.582;5.298;2023-03-01T07:22:54;3.10;65.70
33827;DHT22;20128;45.582;5.298;2023-03-01T07:25:21;3.10;65.90
33827;DHT22;20128;45.582;5.298;2023-03-01T07:27:51;3.00;66.20
33827;DHT22;20128;45.582;5.298;2023-03-01T07:30:18;3.10;66.20
33827;DHT22;20128;45.582;5.298;2023-03-01T07:32:43;3.00;66.80
33827;DHT22;20128;45.582;5.298;2023-03-01T07:35:10;3.00;66.30
33827;DHT22;20128;45.582;5.298;2023-03-01T07:37:36;2.90;66.30
33827;DHT22;20128;45.582;5.298;2023-03-01T07:40:02;2.80;66.70
33827;DHT22;20128;45.582;5.298;2023-03-01T07:42:28;2.90;66.50
33827;DHT22;20128;45.582;5.298;2023-03-01T07:44:53;2.90;66.40
33827;DHT22;20128;45.582;5.298;2023-03-01T07:47:19;2.90;66.60
33827;DHT22;20128;45.582;5.298;2023-03-01T07:49:44;2.90;66.70
33827;DHT22;20128;45.582;5.298;2023-03-01T07:52:11;2.90;66.90
33827;DHT22;20128;45.582;5.298;2023-03-01T07:54:37;2.90;66.70
33827;DHT22;20128;45.582;5.298;2023-03-01T07:57:03;3.00;66.60
33827;DHT22;20128;45.582;5.298;2023-03-01T07:59:29;3.00;66.60
33827;DHT22;20128;45.582;5.298;2023-03-01T08:01:57;3.00;66.50
33827;DHT22;20128;45.582;5.298;2023-03-01T08:04:23;3.00;66.40
33827;DHT22;20128;45.582;5.298;2023-03-01T08:06:50;2.90;66.40
33827;DHT22;20128;45.582;5.298;2023-03-01T08:09:16;2.90;66.60
33827;DHT22;20128;45.582;5.298;2023-03-01T08:11:42;2.90;66.80
33827;DHT22;20128;45.582;5.298;2023-03-01T08:14:08;2.90;66.70
33827;DHT22;20128;45.582;5.298;2023-03-01T08:16:34;2.90;66.90
33827;DHT22;20128;45.582;5.298;2023-03-01T08:19:05;2.90;67.00
33827;DHT22;20128;45.582;5.298;2023-03-01T08:21:31;2.80;66.90
33827;DHT22;20128;45.582;5.298;2023-03-01T08:23:57;2.80;67.00
33827;DHT22;20128;45.582;5.298;2023-03-01T08:26:23;2.90;67.20
33827;DHT22;20128;45.582;5.298;2023-03-01T08:28:49;2.90;67.00
33827;DHT22;20128;45.582;5.298;2023-03-01T08:31:27;2.80;67.00
33827;DHT22;20128;45.582;5.298;2023-03-01T08:33:55;2.80;67.10
33827;DHT22;20128;45.582;5.298;2023-03-01T08:36:27;2.90;67.10
33827;DHT22;20128;45.582;5.298;2023-03-01T08:38:53;3.00;67.10
33827;DHT22;20128;45.582;5.298;2023-03-01T08:41:19;3.00;66.90
33827;DHT22;20128;45.582;5.298;2023-03-01T08:43:45;3.00;66.80
33827;DHT22;20128;45.582;5.298;2023-03-01T08:46:11;3.00;66.80
33827;DHT22;20128;45.582;5.298;2023-03-01T08:48:37;3.10;66.60
33827;DHT22;20128;45.582;5.298;2023-03-01T08:51:12;3.00;66.60
33827;DHT22;20128;45.582;5.298;2023-03-01T08:53:39;2.90;66.90
33827;DHT22;20128;45.582;5.298;2023-03-01T08:56:05;2.90;67.00
33827;DHT22;20128;45.582;5.298;2023-03-01T08:58:31;3.00;67.00
33827;DHT22;20128;45.582;5.298;2023-03-01T09:00:56;3.10;67.20
33827;DHT22;20128;45.582;5.298;2023-03-01T09:03:23;3.20;67.00
33827;DHT22;20128;45.582;5.298;2023-03-01T09:05:49;3.20;66.90
33827;DHT22;20128;45.582;5.298;2023-03-01T09:08:19;3.20;66.80
33827;DHT22;20128;45.582;5.298;2023-03-01T09:10:45;3.30;66.80
33827;DHT22;20128;45.582;5.298;2023-03-01T09:13:11;3.30;66.60
33827;DHT22;20128;45.582;5.298;2023-03-01T09:15:37;3.30;66.40
33827;DHT22;20128;45.582;5.298;2023-03-01T09:18:03;3.40;66.30
33827;DHT22;20128;45.582;5.298;2023-03-01T09:20:30;3.40;66.30
33827;DHT22;20128;45.582;5.298;2023-03-01T09:22:56;3.50;66.20
33827;DHT22;20128;45.582;5.298;2023-03-01T09:25:22;3.50;65.90
33827;DHT22;20128;45.582;5.298;2023-03-01T09:27:53;3.50;65.90
33827;DHT22;20128;45.582;5.298;2023-03-01T09:30:20;3.50;66.00
33827;DHT22;20128;45.582;5.298;2023-03-01T09:32:45;3.50;65.80
33827;DHT22;20128;45.582;5.298;2023-03-01T09:35:11;3.50;65.70
33827;DHT22;20128;45.582;5.298;2023-03-01T09:37:37;3.40;65.80
33827;DHT22;20128;45.582;5.298;2023-03-01T09:40:06;3.40;66.10
33827;DHT22;20128;45.582;5.298;2023-03-01T09:42:34;3.40;66.10
33827;DHT22;20128;45.582;5.298;2023-03-01T09:45:06;3.40;66.30
33827;DHT22;20128;45.582;5.298;2023-03-01T09:47:35;3.40;66.20
33827;DHT22;20128;45.582;5.298;2023-03-01T09:50:20;3.60;66.20
33827;DHT22;20128;45.582;5.298;2023-03-01T10:00:50;3.50;66.10
33827;DHT22;20128;45.582;5.298;2023-03-01T10:04:22;3.50;66.00
33827;DHT22;20128;45.582;5.298;2023-03-01T10:06:23;3.50;66.10
33827;DHT22;20128;45.582;5.298;2023-03-01T10:08:56;3.50;66.00
33827;DHT22;20128;45.582;5.298;2023-03-01T10:11:30;3.60;66.00
33827;DHT22;20128;45.582;5.298;2023-03-01T10:14:23;3.60;66.00
33827;DHT22;20128;45.582;5.298;2023-03-01T10:16:58;3.60;65.80
33827;DHT22;20128;45.582;5.298;2023-03-01T10:19:39;3.60;65.80
33827;DHT22;20128;45.582;5.298;2023-03-01T10:22:16;3.60;66.00
33827;DHT22;20128;45.582;5.298;2023-03-01T10:24:43;3.70;66.00
33827;DHT22;20128;45.582;5.298;2023-03-01T10:27:17;3.70;65.80
33827;DHT22;20128;45.582;5.298;2023-03-01T10:30:10;3.70;65.70
33827;DHT22;20128;45.582;5.298;2023-03-01T10:32:38;3.80;65.70
33827;DHT22;20128;45.582;5.298;2023-03-01T10:35:36;3.70;65.70
33827;DHT22;20128;45.582;5.298;2023-03-01T10:38:12;3.70;65.80
33827;DHT22;20128;45.582;5.298;2023-03-01T10:40:54;3.70;66.00
33827;DHT22;20128;45.582;5.298;2023-03-01T10:43:20;3.80;66.60
33827;DHT22;20128;45.582;5.298;2023-03-01T10:45:47;3.90;65.90
33827;DHT22;20128;45.582;5.298;2023-03-01T10:50:48;4.00;65.60
33827;DHT22;20128;45.582;5.298;2023-03-01T10:56:03;4.00;65.60
33827;DHT22;20128;45.582;5.298;2023-03-01T10:58:30;4.10;65.50
33827;DHT22;20128;45.582;5.298;2023-03-01T11:01:26;4.10;65.40
33827;DHT22;20128;45.582;5.298;2023-03-01T11:06:37;4.20;64.90
33827;DHT22;20128;45.582;5.298;2023-03-01T11:09:21;4.20;65.00
33827;DHT22;20128;45.582;5.298;2023-03-01T11:11:54;4.20;64.90
33827;DHT22;20128;45.582;5.298;2023-03-01T11:17:02;4.20;65.00
33827;DHT22;20128;45.582;5.298;2023-03-01T11:19:28;4.20;65.20
33827;DHT22;20128;45.582;5.298;2023-03-01T11:22:13;4.20;65.10
33827;DHT22;20128;45.582;5.298;2023-03-01T11:24:47;4.30;65.20
33827;DHT22;20128;45.582;5.298;2023-03-01T11:27:20;4.40;65.10
33827;DHT22;20128;45.582;5.298;2023-03-01T11:33:04;4.50;64.90
33827;DHT22;20128;45.582;5.298;2023-03-01T11:35:32;4.40;64.80
33827;DHT22;20128;45.582;5.298;2023-03-01T11:38:22;4.50;64.60
33827;DHT22;20128;45.582;5.298;2023-03-01T11:41:02;4.40;64.70
33827;DHT22;20128;45.582;5.298;2023-03-01T11:43:37;4.40;64.80
33827;DHT22;20128;45.582;5.298;2023-03-01T11:49:39;4.40;64.90
33827;DHT22;20128;45.582;5.298;2023-03-01T12:18:23;4.80;64.10
33827;DHT22;20128;45.582;5.298;2023-03-01T12:29:02;4.90;63.80
33827;DHT22;20128;45.582;5.298;2023-03-01T12:31:59;4.90;63.80
33827;DHT22;20128;45.582;5.298;2023-03-01T12:37:41;4.90;63.10
33827;DHT22;20128;45.582;5.298;2023-03-01T12:49:12;4.80;64.10
33827;DHT22;20128;45.582;5.298;2023-03-01T12:51:40;5.00;64.20
33827;DHT22;20128;45.582;5.298;2023-03-01T12:54:16;5.10;64.30
33827;DHT22;20128;45.582;5.298;2023-03-01T12:56:46;5.10;63.80
33827;DHT22;20128;45.582;5.298;2023-03-01T13:02:23;5.20;64.40
33827;DHT22;20128;45.582;5.298;2023-03-01T13:07:50;5.20;63.60
33827;DHT22;20128;45.582;5.298;2023-03-01T13:10:40;5.10;63.70
33827;DHT22;20128;45.582;5.298;2023-03-01T13:15:35;5.10;63.50
33827;DHT22;20128;45.582;5.298;2023-03-01T13:18:03;5.10;63.80
33827;DHT22;20128;45.582;5.298;2023-03-01T13:26:04;5.20;64.10
33827;DHT22;20128;45.582;5.298;2023-03-01T13:33:51;5.10;63.80
33827;DHT22;20128;45.582;5.298;2023-03-01T13:47:15;5.20;64.00
33827;DHT22;20128;45.582;5.298;2023-03-01T13:49:49;5.30;64.20
33827;DHT22;20128;45.582;5.298;2023-03-01T13:54:55;5.30;64.20
33827;DHT22;20128;45.582;5.298;2023-03-01T13:57:29;5.30;64.40
33827;DHT22;20128;45.582;5.298;2023-03-01T13:59:57;5.40;64.50
33827;DHT22;20128;45.582;5.298;2023-03-01T14:02:23;5.40;63.80
33827;DHT22;20128;45.582;5.298;2023-03-01T14:04:59;5.50;63.60
33827;DHT22;20128;45.582;5.298;2023-03-01T14:07:27;5.50;63.70
33827;DHT22;20128;45.582;5.298;2023-03-01T14:09:58;5.50;63.90
33827;DHT22;20128;45.582;5.298;2023-03-01T14:15:06;5.50;64.20
33827;DHT22;20128;45.582;5.298;2023-03-01T14:18:25;5.50;64.00
33827;DHT22;20128;45.582;5.298;2023-03-01T14:20:37;5.60;64.20
33827;DHT22;20128;45.582;5.298;2023-03-01T14:23:11;5.70;63.70
33827;DHT22;20128;45.582;5.298;2023-03-01T14:25:38;5.70;63.80
33827;DHT22;20128;45.582;5.298;2023-03-01T14:30:44;5.70;63.70
33827;DHT22;20128;45.582;5.298;2023-03-01T14:35:56;5.80;63.80
33827;DHT22;20128;45.582;5.298;2023-03-01T14:38:39;5.80;63.90
33827;DHT22;20128;45.582;5.298;2023-03-01T14:41:10;5.90;64.00
33827;DHT22;20128;45.582;5.298;2023-03-01T14:43:38;5.90;64.00
33827;DHT22;20128;45.582;5.298;2023-03-01T14:46:06;5.80;64.00
33827;DHT22;20128;45.582;5.298;2023-03-01T14:48:41;5.90;64.00
33827;DHT22;20128;45.582;5.298;2023-03-01T14:51:07;5.90;64.00
33827;DHT22;20128;45.582;5.298;2023-03-01T14:53:32;5.90;63.80
33827;DHT22;20128;45.582;5.298;2023-03-01T14:56:02;5.90;63.80
33827;DHT22;20128;45.582;5.298;2023-03-01T14:58:28;5.90;63.70
33827;DHT22;20128;45.582;5.298;2023-03-01T15:00:59;5.90;63.90
33827;DHT22;20128;45.582;5.298;2023-03-01T15:03:35;6.00;64.00
33827;DHT22;20128;45.582;5.298;2023-03-01T15:06:06;5.90;63.70
33827;DHT22;20128;45.582;5.298;2023-03-01T15:08:33;6.00;63.80
33827;DHT22;20128;45.582;5.298;2023-03-01T15:11:21;6.00;63.90
33827;DHT22;20128;45.582;5.298;2023-03-01T15:13:48;6.00;63.60
33827;DHT22;20128;45.582;5.298;2023-03-01T15:16:21;6.00;63.60
33827;DHT22;20128;45.582;5.298;2023-03-01T15:18:54;6.00;63.70
33827;DHT22;20128;45.582;5.298;2023-03-01T15:23:59;6.00;63.40
33827;DHT22;20128;45.582;5.298;2023-03-01T15:26:35;5.90;63.70
33827;DHT22;20128;45.582;5.298;2023-03-01T15:29:02;6.00;63.80
33827;DHT22;20128;45.582;5.298;2023-03-01T15:31:32;6.00;63.70
33827;DHT22;20128;45.582;5.298;2023-03-01T15:34:33;6.00;63.60
33827;DHT22;20128;45.582;5.298;2023-03-01T15:36:59;5.90;63.40
33827;DHT22;20128;45.582;5.298;2023-03-01T15:41:59;5.90;63.70
33827;DHT22;20128;45.582;5.298;2023-03-01T15:44:40;5.90;63.70
33827;DHT22;20128;45.582;5.298;2023-03-01T15:47:26;5.80;63.70
33827;DHT22;20128;45.582;5.298;2023-03-01T15:49:54;5.90;63.90
33827;DHT22;20128;45.582;5.298;2023-03-01T15:52:35;5.90;63.90
33827;DHT22;20128;45.582;5.298;2023-03-01T15:55:13;5.90;64.10
33827;DHT22;20128;45.582;5.298;2023-03-01T15:57:39;5.90;64.10
33827;DHT22;20128;45.582;5.298;2023-03-01T16:00:05;6.00;64.20
33827;DHT22;20128;45.582;5.298;2023-03-01T16:02:37;6.00;64.00
33827;DHT22;20128;45.582;5.298;2023-03-01T16:05:03;6.00;64.00
33827;DHT22;20128;45.582;5.298;2023-03-01T16:07:29;5.90;64.00
33827;DHT22;20128;45.582;5.298;2023-03-01T16:09:56;5.90;64.00
33827;DHT22;20128;45.582;5.298;2023-03-01T16:12:22;5.90;64.10
33827;DHT22;20128;45.582;5.298;2023-03-01T16:14:49;5.90;64.30
33827;DHT22;20128;45.582;5.298;2023-03-01T16:17:15;6.00;64.30
33827;DHT22;20128;45.582;5.298;2023-03-01T16:19:41;5.90;64.20
33827;DHT22;20128;45.582;5.298;2023-03-01T16:22:08;5.90;64.20
33827;DHT22;20128;45.582;5.298;2023-03-01T16:24:35;5.90;64.40
33827;DHT22;20128;45.582;5.298;2023-03-01T16:27:01;5.90;64.50
33827;DHT22;20128;45.582;5.298;2023-03-01T16:29:27;6.00;64.40
33827;DHT22;20128;45.582;5.298;2023-03-01T16:31:54;5.90;64.40
33827;DHT22;20128;45.582;5.298;2023-03-01T16:34:20;6.00;64.00
33827;DHT22;20128;45.582;5.298;2023-03-01T16:36:47;6.00;64.00
33827;DHT22;20128;45.582;5.298;2023-03-01T16:39:12;6.00;64.90
33827;DHT22;20128;45.582;5.298;2023-03-01T16:41:38;6.00;64.30
33827;DHT22;20128;45.582;5.298;2023-03-01T16:44:04;6.00;64.30
33827;DHT22;20128;45.582;5.298;2023-03-01T16:46:30;6.00;64.20
33827;DHT22;20128;45.582;5.298;2023-03-01T16:48:56;6.10;64.20
33827;DHT22;20128;45.582;5.298;2023-03-01T16:51:22;6.10;64.10
33827;DHT22;20128;45.582;5.298;2023-03-01T16:53:49;6.00;64.10
33827;DHT22;20128;45.582;5.298;2023-03-01T16:56:15;6.00;64.10
33827;DHT22;20128;45.582;5.298;2023-03-01T16:58:41;6.00;64.20
33827;DHT22;20128;45.582;5.298;2023-03-01T17:01:18;6.10;64.30
33827;DHT22;20128;45.582;5.298;2023-03-01T17:03:45;6.00;64.30
33827;DHT22;20128;45.582;5.298;2023-03-01T17:06:14;6.00;64.30
33827;DHT22;20128;45.582;5.298;2023-03-01T17:08:40;6.10;64.40
33827;DHT22;20128;45.582;5.298;2023-03-01T17:11:17;6.10;64.40
33827;DHT22;20128;45.582;5.298;2023-03-01T17:13:43;6.10;64.30
33827;DHT22;20128;45.582;5.298;2023-03-01T17:16:11;6.10;64.40
33827;DHT22;20128;45.582;5.298;2023-03-01T17:18:38;6.10;64.50
33827;DHT22;20128;45.582;5.298;2023-03-01T17:21:05;6.10;64.50
33827;DHT22;20128;45.582;5.298;2023-03-01T17:23:32;6.20;64.60
33827;DHT22;20128;45.582;5.298;2023-03-01T17:25:58;6.20;64.70
33827;DHT22;20128;45.582;5.298;2023-03-01T17:28:27;6.20;64.70
33827;DHT22;20128;45.582;5.298;2023-03-01T17:30:52;6.20;64.60
33827;DHT22;20128;45.582;5.298;2023-03-01T17:33:19;6.20;64.50
33827;DHT22;20128;45.582;5.298;2023-03-01T17:35:45;6.30;64.60
33827;DHT22;20128;45.582;5.298;2023-03-01T17:38:13;6.20;64.60
33827;DHT22;20128;45.582;5.298;2023-03-01T17:40:40;6.30;64.70
33827;DHT22;20128;45.582;5.298;2023-03-01T17:43:07;6.30;64.60
33827;DHT22;20128;45.582;5.298;2023-03-01T17:45:35;6.30;64.60
33827;DHT22;20128;45.582;5.298;2023-03-01T17:48:01;6.30;64.50
33827;DHT22;20128;45.582;5.298;2023-03-01T17:50:27;6.30;64.50
33827;DHT22;20128;45.582;5.298;2023-03-01T17:52:53;6.40;64.50
33827;DHT22;20128;45.582;5.298;2023-03-01T17:55:20;6.30;64.50
33827;DHT22;20128;45.582;5.298;2023-03-01T17:57:46;6.30;65.20
33827;DHT22;20128;45.582;5.298;2023-03-01T18:00:14;6.30;64.60
33827;DHT22;20128;45.582;5.298;2023-03-01T18:02:41;6.30;64.60